sensor_id;sensor_type;location;lat;lon;timestamp;P1;durP1;ratioP1;P2;durP2;ratioP2
79751;SDS011;69234;47.446;21.636;2023-11-25T00:00:12;26.10;;;25.47;;
79751;SDS011;69234;47.446;21.636;2023-11-25T00:00:44;28.00;;;27.10;;
79751;SDS011;69234;47.446;21.636;2023-11-25T00:01:15;28.97;;;27.97;;
79751;SDS011;69234;47.446;21.636;2023-11-25T00:01:46;27.83;;;27.00;;
79751;SDS011;69234;47.446;21.636;2023-11-25T00:02:17;27.67;;;26.97;;
79751;SDS011;69234;47.446;21.636;2023-11-25T00:02:49;26.60;;;25.93;;
79751;SDS011;69234;47.446;21.636;2023-11-25T00:03:20;26.43;;;25.73;;
79751;SDS011;69234;47.446;21.636;2023-11-25T00:03:51;25.87;;;25.23;;
79751;SDS011;69234;47.446;21.636;2023-11-25T00:04:22;26.73;;;26.07;;
79751;SDS011;69234;47.446;21.636;2023-11-25T00:04:53;26.23;;;25.70;;
79751;SDS011;69234;47.446;21.636;2023-11-25T00:05:24;27.83;;;27.10;;
79751;SDS011;69234;47.446;21.636;2023-11-25T00:05:55;32.67;;;31.57;;
79751;SDS011;69234;47.446;21.636;2023-11-25T00:06:26;34.77;;;33.53;;
79751;SDS011;69234;47.446;21.636;2023-11-25T00:06:58;35.13;;;33.70;;
79751;SDS011;69234;47.446;21.636;2023-11-25T00:07:29;36.77;;;35.17;;
79751;SDS011;69234;47.446;21.636;2023-11-25T00:08:00;33.63;;;32.33;;
79751;SDS011;69234;47.446;21.636;2023-11-25T00:08:31;33.13;;;31.73;;
79751;SDS011;69234;47.446;21.636;2023-11-25T00:09:02;35.33;;;33.73;;
79751;SDS011;69234;47.446;21.636;2023-11-25T00:09:33;30.77;;;29.60;;
79751;SDS011;69234;47.446;21.636;2023-11-25T00:10:04;27.50;;;26.60;;
79751;SDS011;69234;47.446;21.636;2023-11-25T00:10:36;25.87;;;25.10;;
79751;SDS011;69234;47.446;21.636;2023-11-25T00:11:07;23.77;;;23.27;;
79751;SDS011;69234;47.446;21.636;2023-11-25T00:11:39;21.33;;;20.77;;
79751;SDS011;69234;47.446;21.636;2023-11-25T00:12:12;21.80;;;21.20;;
79751;SDS011;69234;47.446;21.636;2023-11-25T00:12:42;22.57;;;21.87;;
79751;SDS011;69234;47.446;21.636;2023-11-25T00:13:13;23.70;;;22.97;;
79751;SDS011;69234;47.446;21.636;2023-11-25T00:13:45;24.07;;;23.37;;
79751;SDS011;69234;47.446;21.636;2023-11-25T00:14:16;24.20;;;23.50;;
79751;SDS011;69234;47.446;21.636;2023-11-25T00:14:47;25.63;;;24.97;;
79751;SDS011;69234;47.446;21.636;2023-11-25T00:15:18;24.77;;;24.13;;
79751;SDS011;69234;47.446;21.636;2023-11-25T00:15:49;22.43;;;21.70;;
79751;SDS011;69234;47.446;21.636;2023-11-25T00:16:20;20.47;;;19.77;;
79751;SDS011;69234;47.446;21.636;2023-11-25T00:16:51;19.93;;;19.23;;
79751;SDS011;69234;47.446;21.636;2023-11-25T00:17:22;20.17;;;19.50;;
79751;SDS011;69234;47.446;21.636;2023-11-25T00:17:54;19.23;;;18.60;;
79751;SDS011;69234;47.446;21.636;2023-11-25T00:18:26;20.07;;;19.43;;
79751;SDS011;69234;47.446;21.636;2023-11-25T00:18:57;20.77;;;20.30;;
79751;SDS011;69234;47.446;21.636;2023-11-25T00:19:28;20.73;;;20.30;;
79751;SDS011;69234;47.446;21.636;2023-11-25T00:19:59;22.87;;;22.37;;
79751;SDS011;69234;47.446;21.636;2023-11-25T00:20:30;23.27;;;22.83;;
79751;SDS011;69234;47.446;21.636;2023-11-25T00:21:01;22.00;;;21.63;;
79751;SDS011;69234;47.446;21.636;2023-11-25T00:21:32;21.73;;;21.23;;
79751;SDS011;69234;47.446;21.636;2023-11-25T00:22:03;19.60;;;19.20;;
79751;SDS011;69234;47.446;21.636;2023-11-25T00:22:34;18.87;;;18.53;;
79751;SDS011;69234;47.446;21.636;2023-11-25T00:23:05;18.77;;;18.50;;
79751;SDS011;69234;47.446;21.636;2023-11-25T00:23:36;18.73;;;18.40;;
79751;SDS011;69234;47.446;21.636;2023-11-25T00:24:07;17.73;;;17.30;;
79751;SDS011;69234;47.446;21.636;2023-11-25T00:24:38;17.40;;;16.97;;
79751;SDS011;69234;47.446;21.636;2023-11-25T00:25:10;17.70;;;17.33;;
79751;SDS011;69234;47.446;21.636;2023-11-25T00:25:42;17.37;;;17.07;;
79751;SDS011;69234;47.446;21.636;2023-11-25T00:26:13;17.60;;;17.30;;
79751;SDS011;69234;47.446;21.636;2023-11-25T00:26:55;19.10;;;18.77;;
79751;SDS011;69234;47.446;21.636;2023-11-25T00:27:26;18.33;;;18.00;;
79751;SDS011;69234;47.446;21.636;2023-11-25T00:27:58;18.73;;;18.43;;
79751;SDS011;69234;47.446;21.636;2023-11-25T00:28:29;18.53;;;18.20;;
79751;SDS011;69234;47.446;21.636;2023-11-25T00:29:01;19.87;;;19.53;;
79751;SDS011;69234;47.446;21.636;2023-11-25T00:29:32;20.93;;;20.60;;
79751;SDS011;69234;47.446;21.636;2023-11-25T00:30:04;19.67;;;19.20;;
79751;SDS011;69234;47.446;21.636;2023-11-25T00:30:36;20.37;;;19.87;;
79751;SDS011;69234;47.446;21.636;2023-11-25T00:31:07;21.37;;;20.80;;
79751;SDS011;69234;47.446;21.636;2023-11-25T00:31:38;20.50;;;19.97;;
79751;SDS011;69234;47.446;21.636;2023-11-25T00:32:09;21.27;;;20.77;;
79751;SDS011;69234;47.446;21.636;2023-11-25T00:32:40;21.07;;;20.63;;
79751;SDS011;69234;47.446;21.636;2023-11-25T00:33:12;20.63;;;20.27;;
79751;SDS011;69234;47.446;21.636;2023-11-25T00:33:43;20.17;;;19.87;;
79751;SDS011;69234;47.446;21.636;2023-11-25T00:34:14;20.07;;;19.67;;
79751;SDS011;69234;47.446;21.636;2023-11-25T00:34:45;21.33;;;20.80;;
79751;SDS011;69234;47.446;21.636;2023-11-25T00:35:16;21.43;;;20.87;;
79751;SDS011;69234;47.446;21.636;2023-11-25T00:35:47;19.57;;;19.27;;
79751;SDS011;69234;47.446;21.636;2023-11-25T00:36:18;20.43;;;20.07;;
79751;SDS011;69234;47.446;21.636;2023-11-25T00:36:50;20.20;;;19.87;;
79751;SDS011;69234;47.446;21.636;2023-11-25T00:37:24;20.40;;;20.07;;
79751;SDS011;69234;47.446;21.636;2023-11-25T00:37:55;20.17;;;19.87;;
79751;SDS011;69234;47.446;21.636;2023-11-25T00:38:26;19.53;;;19.33;;
79751;SDS011;69234;47.446;21.636;2023-11-25T00:38:57;20.03;;;19.80;;
79751;SDS011;69234;47.446;21.636;2023-11-25T00:39:30;19.63;;;19.33;;
79751;SDS011;69234;47.446;21.636;2023-11-25T00:40:01;19.57;;;19.27;;
79751;SDS011;69234;47.446;21.636;2023-11-25T00:40:39;20.53;;;20.30;;
79751;SDS011;69234;47.446;21.636;2023-11-25T00:41:10;20.17;;;19.97;;
79751;SDS011;69234;47.446;21.636;2023-11-25T00:41:41;20.53;;;20.23;;
79751;SDS011;69234;47.446;21.636;2023-11-25T00:42:12;21.43;;;21.03;;
79751;SDS011;69234;47.446;21.636;2023-11-25T00:42:44;22.33;;;21.87;;
79751;SDS011;69234;47.446;21.636;2023-11-25T00:43:16;22.57;;;22.00;;
79751;SDS011;69234;47.446;21.636;2023-11-25T00:43:47;23.60;;;23.03;;
79751;SDS011;69234;47.446;21.636;2023-11-25T00:44:18;23.27;;;22.90;;
79751;SDS011;69234;47.446;21.636;2023-11-25T00:44:49;23.97;;;23.50;;
79751;SDS011;69234;47.446;21.636;2023-11-25T00:45:20;23.97;;;23.53;;
79751;SDS011;69234;47.446;21.636;2023-11-25T00:45:55;24.07;;;23.57;;
79751;SDS011;69234;47.446;21.636;2023-11-25T00:46:26;23.57;;;23.07;;
79751;SDS011;69234;47.446;21.636;2023-11-25T00:46:58;23.60;;;23.03;;
79751;SDS011;69234;47.446;21.636;2023-11-25T00:47:30;23.03;;;22.50;;
79751;SDS011;69234;47.446;21.636;2023-11-25T00:48:01;21.57;;;21.17;;
79751;SDS011;69234;47.446;21.636;2023-11-25T00:48:32;21.87;;;21.50;;
79751;SDS011;69234;47.446;21.636;2023-11-25T00:49:05;22.67;;;22.23;;
79751;SDS011;69234;47.446;21.636;2023-11-25T00:49:38;21.80;;;21.33;;
79751;SDS011;69234;47.446;21.636;2023-11-25T00:50:11;22.03;;;21.57;;
79751;SDS011;69234;47.446;21.636;2023-11-25T00:50:46;21.03;;;20.57;;
79751;SDS011;69234;47.446;21.636;2023-11-25T00:51:17;20.77;;;20.43;;
79751;SDS011;69234;47.446;21.636;2023-11-25T00:51:48;21.00;;;20.70;;
79751;SDS011;69234;47.446;21.636;2023-11-25T00:52:20;21.03;;;20.70;;
79751;SDS011;69234;47.446;21.636;2023-11-25T00:52:51;19.47;;;19.07;;
79751;SDS011;69234;47.446;21.636;2023-11-25T00:53:22;20.00;;;19.57;;
79751;SDS011;69234;47.446;21.636;2023-11-25T00:53:53;19.90;;;19.60;;
79751;SDS011;69234;47.446;21.636;2023-11-25T00:54:24;19.23;;;19.03;;
79751;SDS011;69234;47.446;21.636;2023-11-25T00:54:55;19.90;;;19.60;;
79751;SDS011;69234;47.446;21.636;2023-11-25T00:55:26;19.23;;;18.97;;
79751;SDS011;69234;47.446;21.636;2023-11-25T00:55:57;18.10;;;17.90;;
79751;SDS011;69234;47.446;21.636;2023-11-25T00:56:28;18.67;;;18.50;;
79751;SDS011;69234;47.446;21.636;2023-11-25T00:56:59;19.63;;;19.43;;
79751;SDS011;69234;47.446;21.636;2023-11-25T00:57:31;19.47;;;19.17;;
79751;SDS011;69234;47.446;21.636;2023-11-25T00:58:02;19.27;;;18.97;;
79751;SDS011;69234;47.446;21.636;2023-11-25T00:58:34;19.50;;;19.10;;
79751;SDS011;69234;47.446;21.636;2023-11-25T00:59:04;19.67;;;19.23;;
79751;SDS011;69234;47.446;21.636;2023-11-25T00:59:38;19.03;;;18.67;;
79751;SDS011;69234;47.446;21.636;2023-11-25T01:00:09;20.33;;;19.87;;
79751;SDS011;69234;47.446;21.636;2023-11-25T01:00:45;20.87;;;20.40;;
79751;SDS011;69234;47.446;21.636;2023-11-25T01:01:16;19.70;;;19.30;;
79751;SDS011;69234;47.446;21.636;2023-11-25T01:01:47;18.43;;;18.17;;
79751;SDS011;69234;47.446;21.636;2023-11-25T01:02:18;17.80;;;17.50;;
79751;SDS011;69234;47.446;21.636;2023-11-25T01:02:49;18.10;;;17.80;;
79751;SDS011;69234;47.446;21.636;2023-11-25T01:03:20;17.53;;;17.30;;
79751;SDS011;69234;47.446;21.636;2023-11-25T01:03:52;16.50;;;16.47;;
79751;SDS011;69234;47.446;21.636;2023-11-25T01:04:23;16.73;;;16.53;;
79751;SDS011;69234;47.446;21.636;2023-11-25T01:04:54;16.40;;;16.07;;
79751;SDS011;69234;47.446;21.636;2023-11-25T01:05:25;15.60;;;15.33;;
79751;SDS011;69234;47.446;21.636;2023-11-25T01:05:56;14.93;;;14.80;;
79751;SDS011;69234;47.446;21.636;2023-11-25T01:06:27;14.13;;;14.03;;
79751;SDS011;69234;47.446;21.636;2023-11-25T01:06:58;14.57;;;14.40;;
79751;SDS011;69234;47.446;21.636;2023-11-25T01:07:29;15.00;;;14.70;;
79751;SDS011;69234;47.446;21.636;2023-11-25T01:08:00;14.27;;;14.03;;
79751;SDS011;69234;47.446;21.636;2023-11-25T01:08:31;13.90;;;13.70;;
79751;SDS011;69234;47.446;21.636;2023-11-25T01:09:03;13.70;;;13.47;;
79751;SDS011;69234;47.446;21.636;2023-11-25T01:09:34;14.37;;;14.13;;
79751;SDS011;69234;47.446;21.636;2023-11-25T01:10:05;14.70;;;14.33;;
79751;SDS011;69234;47.446;21.636;2023-11-25T01:10:36;13.90;;;13.87;;
79751;SDS011;69234;47.446;21.636;2023-11-25T01:11:07;14.63;;;14.57;;
79751;SDS011;69234;47.446;21.636;2023-11-25T01:11:38;14.60;;;14.60;;
79751;SDS011;69234;47.446;21.636;2023-11-25T01:12:09;13.37;;;13.27;;
79751;SDS011;69234;47.446;21.636;2023-11-25T01:12:41;13.53;;;13.33;;
79751;SDS011;69234;47.446;21.636;2023-11-25T01:13:12;14.47;;;14.23;;
79751;SDS011;69234;47.446;21.636;2023-11-25T01:13:43;15.20;;;14.97;;
79751;SDS011;69234;47.446;21.636;2023-11-25T01:14:13;14.33;;;14.13;;
79751;SDS011;69234;47.446;21.636;2023-11-25T01:14:44;14.10;;;13.87;;
79751;SDS011;69234;47.446;21.636;2023-11-25T01:15:15;14.30;;;14.00;;
79751;SDS011;69234;47.446;21.636;2023-11-25T01:15:46;14.53;;;14.27;;
79751;SDS011;69234;47.446;21.636;2023-11-25T01:16:18;14.03;;;13.80;;
79751;SDS011;69234;47.446;21.636;2023-11-25T01:16:49;14.47;;;14.23;;
79751;SDS011;69234;47.446;21.636;2023-11-25T01:17:20;13.90;;;13.70;;
79751;SDS011;69234;47.446;21.636;2023-11-25T01:17:53;14.47;;;14.27;;
79751;SDS011;69234;47.446;21.636;2023-11-25T01:18:24;13.97;;;13.73;;
79751;SDS011;69234;47.446;21.636;2023-11-25T01:18:55;13.20;;;12.93;;
79751;SDS011;69234;47.446;21.636;2023-11-25T01:19:26;13.40;;;13.30;;
79751;SDS011;69234;47.446;21.636;2023-11-25T01:19:58;13.77;;;13.77;;
79751;SDS011;69234;47.446;21.636;2023-11-25T01:20:29;13.80;;;13.80;;
79751;SDS011;69234;47.446;21.636;2023-11-25T01:21:00;13.03;;;13.03;;
79751;SDS011;69234;47.446;21.636;2023-11-25T01:21:31;13.23;;;13.10;;
79751;SDS011;69234;47.446;21.636;2023-11-25T01:22:02;13.20;;;13.07;;
79751;SDS011;69234;47.446;21.636;2023-11-25T01:22:34;13.73;;;13.50;;
79751;SDS011;69234;47.446;21.636;2023-11-25T01:23:05;13.93;;;13.67;;
79751;SDS011;69234;47.446;21.636;2023-11-25T01:23:36;14.10;;;13.87;;
79751;SDS011;69234;47.446;21.636;2023-11-25T01:24:07;13.63;;;13.40;;
79751;SDS011;69234;47.446;21.636;2023-11-25T01:24:41;13.67;;;13.47;;
79751;SDS011;69234;47.446;21.636;2023-11-25T01:25:12;13.67;;;13.57;;
79751;SDS011;69234;47.446;21.636;2023-11-25T01:25:43;14.40;;;14.17;;
79751;SDS011;69234;47.446;21.636;2023-11-25T01:26:14;13.93;;;13.70;;
79751;SDS011;69234;47.446;21.636;2023-11-25T01:26:45;14.20;;;13.97;;
79751;SDS011;69234;47.446;21.636;2023-11-25T01:27:16;14.40;;;14.17;;
79751;SDS011;69234;47.446;21.636;2023-11-25T01:27:47;14.27;;;14.20;;
79751;SDS011;69234;47.446;21.636;2023-11-25T01:28:18;13.53;;;13.50;;
79751;SDS011;69234;47.446;21.636;2023-11-25T01:28:49;14.23;;;14.10;;
79751;SDS011;69234;47.446;21.636;2023-11-25T01:29:20;13.77;;;13.67;;
79751;SDS011;69234;47.446;21.636;2023-11-25T01:29:52;14.03;;;13.87;;
79751;SDS011;69234;47.446;21.636;2023-11-25T01:30:23;13.87;;;13.77;;
79751;SDS011;69234;47.446;21.636;2023-11-25T01:30:54;14.13;;;14.00;;
79751;SDS011;69234;47.446;21.636;2023-11-25T01:31:25;14.07;;;13.77;;
79751;SDS011;69234;47.446;21.636;2023-11-25T01:31:56;14.60;;;14.30;;
79751;SDS011;69234;47.446;21.636;2023-11-25T01:32:27;14.13;;;13.93;;
79751;SDS011;69234;47.446;21.636;2023-11-25T01:32:59;13.77;;;13.70;;
79751;SDS011;69234;47.446;21.636;2023-11-25T01:33:30;13.87;;;13.87;;
79751;SDS011;69234;47.446;21.636;2023-11-25T01:34:02;13.70;;;13.63;;
79751;SDS011;69234;47.446;21.636;2023-11-25T01:34:33;15.03;;;14.97;;
79751;SDS011;69234;47.446;21.636;2023-11-25T01:35:05;14.20;;;14.17;;
79751;SDS011;69234;47.446;21.636;2023-11-25T01:35:36;13.97;;;13.80;;
79751;SDS011;69234;47.446;21.636;2023-11-25T01:36:12;13.83;;;13.63;;
79751;SDS011;69234;47.446;21.636;2023-11-25T01:36:42;14.03;;;13.80;;
79751;SDS011;69234;47.446;21.636;2023-11-25T01:37:13;14.57;;;14.33;;
79751;SDS011;69234;47.446;21.636;2023-11-25T01:37:47;15.03;;;14.73;;
79751;SDS011;69234;47.446;21.636;2023-11-25T01:38:18;14.97;;;14.70;;
79751;SDS011;69234;47.446;21.636;2023-11-25T01:38:49;15.30;;;14.97;;
79751;SDS011;69234;47.446;21.636;2023-11-25T01:39:20;14.60;;;14.23;;
79751;SDS011;69234;47.446;21.636;2023-11-25T01:39:51;15.37;;;15.00;;
79751;SDS011;69234;47.446;21.636;2023-11-25T01:40:23;15.07;;;14.77;;
79751;SDS011;69234;47.446;21.636;2023-11-25T01:40:54;14.73;;;14.47;;
79751;SDS011;69234;47.446;21.636;2023-11-25T01:41:26;14.57;;;14.40;;
79751;SDS011;69234;47.446;21.636;2023-11-25T01:41:57;15.13;;;14.90;;
79751;SDS011;69234;47.446;21.636;2023-11-25T01:42:28;15.43;;;15.20;;
79751;SDS011;69234;47.446;21.636;2023-11-25T01:42:59;15.63;;;15.37;;
79751;SDS011;69234;47.446;21.636;2023-11-25T01:43:30;15.27;;;15.03;;
79751;SDS011;69234;47.446;21.636;2023-11-25T01:44:01;14.40;;;14.20;;
79751;SDS011;69234;47.446;21.636;2023-11-25T01:44:32;14.70;;;14.37;;
79751;SDS011;69234;47.446;21.636;2023-11-25T01:45:03;14.57;;;14.17;;
79751;SDS011;69234;47.446;21.636;2023-11-25T01:45:34;14.20;;;13.83;;
79751;SDS011;69234;47.446;21.636;2023-11-25T01:46:05;13.70;;;13.40;;
79751;SDS011;69234;47.446;21.636;2023-11-25T01:46:37;13.43;;;13.23;;
79751;SDS011;69234;47.446;21.636;2023-11-25T01:47:08;12.97;;;12.77;;
79751;SDS011;69234;47.446;21.636;2023-11-25T01:47:42;14.13;;;13.93;;
79751;SDS011;69234;47.446;21.636;2023-11-25T01:48:13;14.03;;;13.83;;
79751;SDS011;69234;47.446;21.636;2023-11-25T01:48:45;14.27;;;14.07;;
79751;SDS011;69234;47.446;21.636;2023-11-25T01:49:16;13.77;;;13.53;;
79751;SDS011;69234;47.446;21.636;2023-11-25T01:49:51;13.33;;;13.10;;
79751;SDS011;69234;47.446;21.636;2023-11-25T01:50:22;12.60;;;12.40;;
79751;SDS011;69234;47.446;21.636;2023-11-25T01:50:57;13.90;;;13.63;;
79751;SDS011;69234;47.446;21.636;2023-11-25T01:51:33;14.47;;;14.17;;
79751;SDS011;69234;47.446;21.636;2023-11-25T01:52:07;13.63;;;13.40;;
79751;SDS011;69234;47.446;21.636;2023-11-25T01:52:39;13.10;;;12.93;;
79751;SDS011;69234;47.446;21.636;2023-11-25T01:53:12;13.77;;;13.63;;
79751;SDS011;69234;47.446;21.636;2023-11-25T01:53:47;14.03;;;13.87;;
79751;SDS011;69234;47.446;21.636;2023-11-25T01:54:19;13.80;;;13.60;;
79751;SDS011;69234;47.446;21.636;2023-11-25T01:54:51;14.43;;;14.13;;
79751;SDS011;69234;47.446;21.636;2023-11-25T01:55:23;15.47;;;15.30;;
79751;SDS011;69234;47.446;21.636;2023-11-25T01:55:57;16.60;;;16.33;;
79751;SDS011;69234;47.446;21.636;2023-11-25T01:56:29;17.57;;;17.17;;
79751;SDS011;69234;47.446;21.636;2023-11-25T01:57:02;17.23;;;16.87;;
79751;SDS011;69234;47.446;21.636;2023-11-25T01:57:33;16.47;;;16.13;;
79751;SDS011;69234;47.446;21.636;2023-11-25T01:58:05;15.70;;;15.40;;
79751;SDS011;69234;47.446;21.636;2023-11-25T01:58:37;16.73;;;16.37;;
79751;SDS011;69234;47.446;21.636;2023-11-25T01:59:09;16.43;;;16.17;;
79751;SDS011;69234;47.446;21.636;2023-11-25T01:59:45;17.10;;;16.77;;
79751;SDS011;69234;47.446;21.636;2023-11-25T02:00:18;17.33;;;17.00;;
79751;SDS011;69234;47.446;21.636;2023-11-25T02:00:50;16.13;;;15.83;;
79751;SDS011;69234;47.446;21.636;2023-11-25T02:01:21;17.03;;;16.73;;
79751;SDS011;69234;47.446;21.636;2023-11-25T02:01:54;17.37;;;16.97;;
79751;SDS011;69234;47.446;21.636;2023-11-25T02:02:27;18.13;;;17.73;;
79751;SDS011;69234;47.446;21.636;2023-11-25T02:03:05;17.57;;;17.23;;
79751;SDS011;69234;47.446;21.636;2023-11-25T02:03:35;17.37;;;17.07;;
79751;SDS011;69234;47.446;21.636;2023-11-25T02:04:06;18.47;;;18.17;;
79751;SDS011;69234;47.446;21.636;2023-11-25T02:04:38;18.20;;;17.90;;
79751;SDS011;69234;47.446;21.636;2023-11-25T02:05:09;17.37;;;17.07;;
79751;SDS011;69234;47.446;21.636;2023-11-25T02:05:40;17.03;;;16.80;;
79751;SDS011;69234;47.446;21.636;2023-11-25T02:06:14;16.43;;;16.20;;
79751;SDS011;69234;47.446;21.636;2023-11-25T02:06:45;15.93;;;15.77;;
79751;SDS011;69234;47.446;21.636;2023-11-25T02:07:16;15.53;;;15.40;;
79751;SDS011;69234;47.446;21.636;2023-11-25T02:07:47;15.17;;;15.17;;
79751;SDS011;69234;47.446;21.636;2023-11-25T02:08:18;15.87;;;15.67;;
79751;SDS011;69234;47.446;21.636;2023-11-25T02:08:51;15.83;;;15.50;;
79751;SDS011;69234;47.446;21.636;2023-11-25T02:09:22;16.30;;;16.00;;
79751;SDS011;69234;47.446;21.636;2023-11-25T02:09:54;16.30;;;16.00;;
79751;SDS011;69234;47.446;21.636;2023-11-25T02:10:25;16.17;;;15.97;;
79751;SDS011;69234;47.446;21.636;2023-11-25T02:10:56;15.90;;;15.67;;
79751;SDS011;69234;47.446;21.636;2023-11-25T02:11:27;16.17;;;15.93;;
79751;SDS011;69234;47.446;21.636;2023-11-25T02:11:59;16.00;;;15.77;;
79751;SDS011;69234;47.446;21.636;2023-11-25T02:12:31;15.50;;;15.27;;
79751;SDS011;69234;47.446;21.636;2023-11-25T02:13:02;14.27;;;14.10;;
79751;SDS011;69234;47.446;21.636;2023-11-25T02:13:38;14.30;;;14.10;;
79751;SDS011;69234;47.446;21.636;2023-11-25T02:14:09;14.77;;;14.60;;
79751;SDS011;69234;47.446;21.636;2023-11-25T02:14:40;15.10;;;15.00;;
79751;SDS011;69234;47.446;21.636;2023-11-25T02:15:12;15.53;;;15.30;;
79751;SDS011;69234;47.446;21.636;2023-11-25T02:15:44;15.17;;;14.87;;
79751;SDS011;69234;47.446;21.636;2023-11-25T02:16:15;14.30;;;14.07;;
79751;SDS011;69234;47.446;21.636;2023-11-25T02:16:46;14.80;;;14.60;;
79751;SDS011;69234;47.446;21.636;2023-11-25T02:17:17;15.27;;;15.03;;
79751;SDS011;69234;47.446;21.636;2023-11-25T02:17:48;14.80;;;14.63;;
79751;SDS011;69234;47.446;21.636;2023-11-25T02:18:23;14.90;;;14.70;;
79751;SDS011;69234;47.446;21.636;2023-11-25T02:18:55;14.57;;;14.37;;
79751;SDS011;69234;47.446;21.636;2023-11-25T02:19:26;15.43;;;15.30;;
79751;SDS011;69234;47.446;21.636;2023-11-25T02:19:58;15.87;;;15.63;;
79751;SDS011;69234;47.446;21.636;2023-11-25T02:20:34;15.43;;;15.17;;
79751;SDS011;69234;47.446;21.636;2023-11-25T02:21:12;14.33;;;14.13;;
79751;SDS011;69234;47.446;21.636;2023-11-25T02:21:44;14.50;;;14.37;;
79751;SDS011;69234;47.446;21.636;2023-11-25T02:22:15;14.73;;;14.53;;
79751;SDS011;69234;47.446;21.636;2023-11-25T02:22:50;14.03;;;13.80;;
79751;SDS011;69234;47.446;21.636;2023-11-25T02:23:29;15.90;;;15.60;;
79751;SDS011;69234;47.446;21.636;2023-11-25T02:24:00;15.33;;;15.07;;
79751;SDS011;69234;47.446;21.636;2023-11-25T02:24:31;15.70;;;15.33;;
79751;SDS011;69234;47.446;21.636;2023-11-25T02:25:03;15.90;;;15.60;;
79751;SDS011;69234;47.446;21.636;2023-11-25T02:25:35;15.50;;;15.23;;
79751;SDS011;69234;47.446;21.636;2023-11-25T02:26:06;15.87;;;15.57;;
79751;SDS011;69234;47.446;21.636;2023-11-25T02:26:38;15.67;;;15.27;;
79751;SDS011;69234;47.446;21.636;2023-11-25T02:27:11;16.00;;;15.67;;
79751;SDS011;69234;47.446;21.636;2023-11-25T02:27:42;15.17;;;14.87;;
79751;SDS011;69234;47.446;21.636;2023-11-25T02:28:14;14.67;;;14.43;;
79751;SDS011;69234;47.446;21.636;2023-11-25T02:28:51;15.20;;;15.07;;
79751;SDS011;69234;47.446;21.636;2023-11-25T02:29:22;14.63;;;14.50;;
79751;SDS011;69234;47.446;21.636;2023-11-25T02:29:53;14.57;;;14.37;;
79751;SDS011;69234;47.446;21.636;2023-11-25T02:30:25;14.97;;;14.70;;
79751;SDS011;69234;47.446;21.636;2023-11-25T02:30:56;14.57;;;14.30;;
79751;SDS011;69234;47.446;21.636;2023-11-25T02:31:27;15.03;;;14.80;;
79751;SDS011;69234;47.446;21.636;2023-11-25T02:31:59;14.80;;;14.73;;
79751;SDS011;69234;47.446;21.636;2023-11-25T02:32:30;13.77;;;13.77;;
79751;SDS011;69234;47.446;21.636;2023-11-25T02:33:01;14.23;;;14.17;;
79751;SDS011;69234;47.446;21.636;2023-11-25T02:33:32;14.97;;;14.87;;
79751;SDS011;69234;47.446;21.636;2023-11-25T02:34:06;14.13;;;14.03;;
79751;SDS011;69234;47.446;21.636;2023-11-25T02:34:37;13.90;;;13.83;;
79751;SDS011;69234;47.446;21.636;2023-11-25T02:35:08;14.37;;;14.27;;
79751;SDS011;69234;47.446;21.636;2023-11-25T02:35:40;14.73;;;14.67;;
79751;SDS011;69234;47.446;21.636;2023-11-25T02:36:13;14.53;;;14.37;;
79751;SDS011;69234;47.446;21.636;2023-11-25T02:36:44;14.33;;;14.13;;
79751;SDS011;69234;47.446;21.636;2023-11-25T02:37:15;13.97;;;13.80;;
79751;SDS011;69234;47.446;21.636;2023-11-25T02:37:46;14.03;;;13.77;;
79751;SDS011;69234;47.446;21.636;2023-11-25T02:38:17;14.57;;;14.23;;
79751;SDS011;69234;47.446;21.636;2023-11-25T02:38:48;14.40;;;14.17;;
79751;SDS011;69234;47.446;21.636;2023-11-25T02:39:19;15.10;;;14.90;;
79751;SDS011;69234;47.446;21.636;2023-11-25T02:39:50;14.57;;;14.33;;
79751;SDS011;69234;47.446;21.636;2023-11-25T02:40:21;14.00;;;13.87;;
79751;SDS011;69234;47.446;21.636;2023-11-25T02:40:54;14.00;;;13.97;;
79751;SDS011;69234;47.446;21.636;2023-11-25T02:41:25;13.60;;;13.57;;
79751;SDS011;69234;47.446;21.636;2023-11-25T02:41:56;13.70;;;13.53;;
79751;SDS011;69234;47.446;21.636;2023-11-25T02:42:27;14.40;;;14.13;;
79751;SDS011;69234;47.446;21.636;2023-11-25T02:42:57;15.47;;;15.17;;
79751;SDS011;69234;47.446;21.636;2023-11-25T02:43:28;14.60;;;14.33;;
79751;SDS011;69234;47.446;21.636;2023-11-25T02:43:59;14.57;;;14.27;;
79751;SDS011;69234;47.446;21.636;2023-11-25T02:44:31;14.73;;;14.43;;
79751;SDS011;69234;47.446;21.636;2023-11-25T02:45:02;15.10;;;14.90;;
79751;SDS011;69234;47.446;21.636;2023-11-25T02:45:33;14.93;;;14.73;;
79751;SDS011;69234;47.446;21.636;2023-11-25T02:46:04;14.90;;;14.63;;
79751;SDS011;69234;47.446;21.636;2023-11-25T02:46:35;15.00;;;14.77;;
79751;SDS011;69234;47.446;21.636;2023-11-25T02:47:06;15.13;;;14.83;;
79751;SDS011;69234;47.446;21.636;2023-11-25T02:47:38;14.60;;;14.40;;
79751;SDS011;69234;47.446;21.636;2023-11-25T02:48:09;15.23;;;15.00;;
79751;SDS011;69234;47.446;21.636;2023-11-25T02:48:40;15.97;;;15.67;;
79751;SDS011;69234;47.446;21.636;2023-11-25T02:49:11;14.93;;;14.67;;
79751;SDS011;69234;47.446;21.636;2023-11-25T02:49:43;15.83;;;15.57;;
79751;SDS011;69234;47.446;21.636;2023-11-25T02:50:15;15.10;;;14.87;;
79751;SDS011;69234;47.446;21.636;2023-11-25T02:50:47;13.83;;;13.57;;
79751;SDS011;69234;47.446;21.636;2023-11-25T02:51:18;14.30;;;14.07;;
79751;SDS011;69234;47.446;21.636;2023-11-25T02:51:50;14.10;;;13.90;;
79751;SDS011;69234;47.446;21.636;2023-11-25T02:52:24;14.70;;;14.60;;
79751;SDS011;69234;47.446;21.636;2023-11-25T02:52:55;15.40;;;15.23;;
79751;SDS011;69234;47.446;21.636;2023-11-25T02:53:26;15.13;;;14.93;;
79751;SDS011;69234;47.446;21.636;2023-11-25T02:53:57;14.33;;;14.20;;
79751;SDS011;69234;47.446;21.636;2023-11-25T02:54:28;13.93;;;13.83;;
79751;SDS011;69234;47.446;21.636;2023-11-25T02:54:59;14.17;;;14.10;;
79751;SDS011;69234;47.446;21.636;2023-11-25T02:55:30;14.37;;;14.33;;
79751;SDS011;69234;47.446;21.636;2023-11-25T02:56:01;14.60;;;14.53;;
79751;SDS011;69234;47.446;21.636;2023-11-25T02:56:32;13.70;;;13.67;;
79751;SDS011;69234;47.446;21.636;2023-11-25T02:57:03;14.20;;;14.07;;
79751;SDS011;69234;47.446;21.636;2023-11-25T02:57:38;14.73;;;14.43;;
79751;SDS011;69234;47.446;21.636;2023-11-25T02:58:13;15.87;;;15.67;;
79751;SDS011;69234;47.446;21.636;2023-11-25T02:58:45;15.03;;;14.83;;
79751;SDS011;69234;47.446;21.636;2023-11-25T02:59:16;13.80;;;13.67;;
79751;SDS011;69234;47.446;21.636;2023-11-25T02:59:52;13.60;;;13.50;;
79751;SDS011;69234;47.446;21.636;2023-11-25T03:00:25;14.17;;;13.97;;
79751;SDS011;69234;47.446;21.636;2023-11-25T03:00:59;15.20;;;14.97;;
79751;SDS011;69234;47.446;21.636;2023-11-25T03:01:38;15.53;;;15.30;;
79751;SDS011;69234;47.446;21.636;2023-11-25T03:02:18;14.77;;;14.57;;
79751;SDS011;69234;47.446;21.636;2023-11-25T03:02:49;14.87;;;14.70;;